createdAt,value
2023-02-16T00:01:36.190Z,4.69
2023-02-16T00:06:42.697Z,4.67
2023-02-16T00:12:08.428Z,4.54
2023-02-16T00:17:11.277Z,4.43
2023-02-16T00:22:13.082Z,4.35
2023-02-16T00:27:19.010Z,4.32
2023-02-16T00:32:20.792Z,4.25
2023-02-16T00:37:22.616Z,4.19
2023-02-16T00:42:29.116Z,4.18
2023-02-16T00:47:37.990Z,4.12
2023-02-16T00:52:46.612Z,4.10
2023-02-16T00:57:56.624Z,4.04
2023-02-16T01:03:00.478Z,4.02
2023-02-16T01:08:34.257Z,4.03
2023-02-16T01:13:44.467Z,3.97
2023-02-16T01:18:46.892Z,3.92
2023-02-16T01:23:50.916Z,3.87
2023-02-16T01:28:57.522Z,3.80
2023-02-16T01:33:59.324Z,3.77
2023-02-16T01:39:01.716Z,3.74
2023-02-16T01:44:07.986Z,3.79
2023-02-16T01:49:19.158Z,3.82
2023-02-16T01:54:29.320Z,3.83
2023-02-16T01:59:42.204Z,3.82
2023-02-16T02:05:10.657Z,3.80
2023-02-16T02:10:35.212Z,3.73
2023-02-16T02:15:37.183Z,3.66
2023-02-16T02:21:27.762Z,3.80
2023-02-16T02:26:57.188Z,3.85
2023-02-16T02:32:35.958Z,3.80
2023-02-16T02:37:56.743Z,3.74
2023-02-16T02:43:04.175Z,3.71
2023-02-16T02:48:06.356Z,3.68
2023-02-16T02:53:18.283Z,3.67
2023-02-16T02:58:41.740Z,3.66
2023-02-16T03:03:50.927Z,3.69
2023-02-16T03:09:00.069Z,3.63
2023-02-16T03:14:04.510Z,3.64
2023-02-16T03:19:31.140Z,3.63
2023-02-16T03:24:51.979Z,3.50
2023-02-16T03:29:55.270Z,3.35
2023-02-16T03:35:00.723Z,3.26
2023-02-16T03:40:25.496Z,3.18
2023-02-16T03:45:28.178Z,3.10
2023-02-16T03:50:30.239Z,3.05
2023-02-16T03:55:36.847Z,3.08
2023-02-16T04:00:39.267Z,3.10
2023-02-16T04:05:46.401Z,3.07
2023-02-16T04:10:54.282Z,3.07
2023-02-16T04:15:59.959Z,3.14
2023-02-16T04:21:04.292Z,3.24
2023-02-16T04:26:06.409Z,3.30
2023-02-16T04:31:08.358Z,3.40
2023-02-16T04:36:14.840Z,3.46
2023-02-16T04:41:19.038Z,3.54
2023-02-16T04:46:20.831Z,3.61
2023-02-16T04:51:23.582Z,3.68
2023-02-16T04:56:28.218Z,3.76
2023-02-16T05:01:34.767Z,3.79
2023-02-16T05:06:46.281Z,3.85
2023-02-16T05:12:06.738Z,3.91
2023-02-16T05:17:22.845Z,3.95
2023-02-16T05:22:25.176Z,4.00
2023-02-16T05:27:29.388Z,4.06
2023-02-16T05:32:33.481Z,4.09
2023-02-16T05:37:42.451Z,4.17
2023-02-16T05:42:46.823Z,4.21
2023-02-16T05:47:53.156Z,4.26
2023-02-16T05:53:00.006Z,4.26
2023-02-16T05:58:06.141Z,4.45
2023-02-16T06:03:07.818Z,4.56
2023-02-16T06:08:14.758Z,4.68
2023-02-16T06:13:19.670Z,4.68
2023-02-16T06:18:24.331Z,4.63
2023-02-16T06:23:33.036Z,4.59
2023-02-16T06:28:37.004Z,4.59
2023-02-16T06:33:43.539Z,4.61
2023-02-16T06:38:45.671Z,4.63
2023-02-16T06:43:47.409Z,4.64
2023-02-16T06:48:51.423Z,4.68
2023-02-16T06:53:58.523Z,4.72
2023-02-16T06:59:00.228Z,4.76
2023-02-16T07:04:06.961Z,4.80
2023-02-16T07:09:10.597Z,4.82
2023-02-16T07:14:16.757Z,4.85
2023-02-16T07:19:18.482Z,4.89
2023-02-16T07:24:21.201Z,5.16
2023-02-16T07:29:23.457Z,5.17
2023-02-16T07:34:25.387Z,5.15
2023-02-16T07:39:29.031Z,5.13
2023-02-16T07:44:33.317Z,5.05
2023-02-16T07:49:37.122Z,4.96
2023-02-16T07:54:39.997Z,4.98
2023-02-16T07:59:45.281Z,5.01
2023-02-16T08:04:52.780Z,5.10
2023-02-16T08:09:57.257Z,5.18
2023-02-16T08:15:03.463Z,5.26
2023-02-16T08:20:09.829Z,5.34
2023-02-16T08:25:11.773Z,5.43
2023-02-16T08:30:18.301Z,5.54
2023-02-16T08:35:22.293Z,5.66
2023-02-16T08:40:24.852Z,5.76
2023-02-16T08:45:30.231Z,5.88
2023-02-16T08:50:36.909Z,5.97
2023-02-16T08:55:42.080Z,6.04
2023-02-16T09:00:45.838Z,6.12
2023-02-16T09:05:52.784Z,6.15
2023-02-16T09:10:55.508Z,6.25
2023-02-16T09:16:06.101Z,6.29
2023-02-16T09:21:18.517Z,6.38
2023-02-16T09:26:23.197Z,6.48
2023-02-16T09:31:30.922Z,6.54
2023-02-16T09:36:32.787Z,6.55
2023-02-16T09:41:41.075Z,6.63
2023-02-16T09:46:42.939Z,6.69
2023-02-16T09:51:50.138Z,6.83
2023-02-16T09:56:59.817Z,6.89
2023-02-16T10:02:23.216Z,6.93
2023-02-16T10:07:43.853Z,7.03
2023-02-16T10:13:00.954Z,7.08
2023-02-16T10:18:12.893Z,7.05
2023-02-16T10:23:29.882Z,7.00
2023-02-16T10:28:34.912Z,7.03
2023-02-16T10:33:44.035Z,7.09
2023-02-16T10:38:48.232Z,7.28
2023-02-16T10:44:07.384Z,7.54
2023-02-16T10:49:12.825Z,7.53
2023-02-16T10:54:23.056Z,7.50
2023-02-16T10:59:30.544Z,7.50
2023-02-16T11:04:41.493Z,7.58
2023-02-16T11:09:48.589Z,7.60
2023-02-16T11:14:58.204Z,7.57
2023-02-16T11:20:05.743Z,7.61
2023-02-16T11:25:28.174Z,7.62
2023-02-16T11:30:32.263Z,7.56
2023-02-16T11:35:42.980Z,7.59
2023-02-16T11:40:51.286Z,7.71
2023-02-16T11:46:02.482Z,7.92
2023-02-16T11:51:09.313Z,8.04
2023-02-16T11:56:27.369Z,7.99
2023-02-16T12:01:47.835Z,8.03
2023-02-16T12:07:03.586Z,8.11
2023-02-16T12:12:30.316Z,8.14
2023-02-16T12:17:54.950Z,8.04
2023-02-16T12:23:09.325Z,8.08
2023-02-16T12:28:20.369Z,8.37
2023-02-16T12:33:37.663Z,8.65
2023-02-16T12:39:19.176Z,8.51
2023-02-16T12:44:37.443Z,8.45
2023-02-16T12:49:47.703Z,8.40
2023-02-16T12:54:53.059Z,8.49
2023-02-16T13:00:03.908Z,8.44
2023-02-16T13:05:16.974Z,8.74
2023-02-16T13:10:35.587Z,9.16
2023-02-16T13:15:41.820Z,8.89
2023-02-16T13:20:52.801Z,8.60
2023-02-16T13:26:42.429Z,8.38
2023-02-16T13:37:16.202Z,8.00
2023-02-16T13:42:30.062Z,7.98
2023-02-16T13:47:34.290Z,7.90
2023-02-16T13:52:45.463Z,7.95
2023-02-16T13:57:52.083Z,8.02
2023-02-16T14:03:17.699Z,8.08
2023-02-16T14:08:28.069Z,7.95
2023-02-16T14:13:33.842Z,7.89
2023-02-16T14:19:00.332Z,7.92
2023-02-16T14:24:03.288Z,7.89
2023-02-16T14:29:20.379Z,7.74
2023-02-16T14:34:31.507Z,7.73
2023-02-16T14:39:34.971Z,7.74
2023-02-16T14:45:10.385Z,7.81
2023-02-16T14:50:28.568Z,7.90
2023-02-16T14:55:55.216Z,7.96
2023-02-16T15:01:04.288Z,7.91
2023-02-16T15:06:06.803Z,7.93
2023-02-16T15:11:14.041Z,7.91
2023-02-16T15:16:16.666Z,7.82
2023-02-16T15:21:22.564Z,7.78
2023-02-16T15:26:29.636Z,7.74
2023-02-16T15:31:37.129Z,7.71
2023-02-16T15:36:43.822Z,7.66
2023-02-16T15:41:51.912Z,7.62
2023-02-16T15:47:16.580Z,7.55
2023-02-16T15:52:26.265Z,7.48
2023-02-16T15:57:36.693Z,7.45
2023-02-16T16:02:43.737Z,7.41
2023-02-16T16:07:48.767Z,7.51
2023-02-16T16:12:56.477Z,7.46
2023-02-16T16:18:00.918Z,7.75
2023-02-16T16:23:04.574Z,7.55
2023-02-16T16:28:14.030Z,7.41
2023-02-16T16:33:16.216Z,7.33
2023-02-16T16:38:30.314Z,7.24
2023-02-16T16:43:38.669Z,7.15
2023-02-16T16:49:03.274Z,7.10
2023-02-16T16:54:36.814Z,7.05
2023-02-16T16:59:39.500Z,6.98
2023-02-16T17:04:46.067Z,6.93
2023-02-16T17:09:50.072Z,6.89
2023-02-16T17:14:52.343Z,6.87
2023-02-16T17:20:01.388Z,6.86
2023-02-16T17:25:03.288Z,6.91
2023-02-16T17:30:07.720Z,6.94
2023-02-16T17:35:11.696Z,6.91
2023-02-16T17:40:19.594Z,6.84
2023-02-16T17:45:24.636Z,6.84
2023-02-16T17:50:26.505Z,6.82
2023-02-16T17:55:28.355Z,6.85
2023-02-16T18:00:31.102Z,6.84
2023-02-16T18:05:38.597Z,6.80
2023-02-16T18:10:46.679Z,6.77
2023-02-16T18:15:52.346Z,6.74
2023-02-16T18:20:57.836Z,6.73
2023-02-16T18:25:59.621Z,6.72
2023-02-16T18:31:01.901Z,6.95
2023-02-16T18:36:05.483Z,6.88
2023-02-16T18:41:08.280Z,6.81
2023-02-16T18:46:10.758Z,6.78
2023-02-16T18:51:16.488Z,6.77
2023-02-16T18:56:19.221Z,6.77
2023-02-16T19:01:30.324Z,6.77
2023-02-16T19:06:34.379Z,6.78
2023-02-16T19:11:39.365Z,6.78
2023-02-16T19:16:41.179Z,6.78
2023-02-16T19:21:47.516Z,6.80
2023-02-16T19:26:50.192Z,6.81
2023-02-16T19:31:51.990Z,6.82
2023-02-16T19:36:54.041Z,6.86
2023-02-16T19:41:58.308Z,6.86
2023-02-16T19:47:03.256Z,6.89
2023-02-16T19:52:05.499Z,6.92
2023-02-16T19:57:09.455Z,6.94
2023-02-16T20:02:15.459Z,6.98
2023-02-16T20:07:17.247Z,6.99
2023-02-16T20:12:21.031Z,7.04
2023-02-16T20:17:25.914Z,7.05
2023-02-16T20:22:28.786Z,7.07
2023-02-16T20:27:35.595Z,7.10
2023-02-16T20:32:37.504Z,7.13
2023-02-16T20:37:41.629Z,7.13
2023-02-16T20:42:48.841Z,7.15
2023-02-16T20:47:50.536Z,7.16
2023-02-16T20:52:54.609Z,7.38
2023-02-16T20:57:58.906Z,7.29
2023-02-16T21:03:00.704Z,7.26
2023-02-16T21:08:04.763Z,7.28
2023-02-16T21:13:06.678Z,7.33
2023-02-16T21:18:11.111Z,7.37
2023-02-16T21:23:17.607Z,7.38
2023-02-16T21:28:20.407Z,7.43
2023-02-16T21:33:22.483Z,7.46
2023-02-16T21:38:24.493Z,7.49
2023-02-16T21:43:30.313Z,7.54
2023-02-16T21:48:45.288Z,7.56
2023-02-16T21:53:48.354Z,7.58
2023-02-16T21:58:51.134Z,7.62
2023-02-16T22:03:59.349Z,7.65
2023-02-16T22:09:05.890Z,7.70
2023-02-16T22:14:10.949Z,7.72
2023-02-16T22:19:18.619Z,7.76
2023-02-16T22:24:20.511Z,7.79
2023-02-16T22:29:22.229Z,7.79
2023-02-16T22:34:26.416Z,7.83
2023-02-16T22:39:31.597Z,7.87
2023-02-16T22:44:35.511Z,7.90
2023-02-16T22:49:44.069Z,7.91
2023-02-16T22:54:48.127Z,7.91
2023-02-16T22:59:51.016Z,7.92
2023-02-16T23:04:58.725Z,7.93
2023-02-16T23:10:00.764Z,7.95
2023-02-16T23:15:03.737Z,7.96
2023-02-16T23:20:09.491Z,7.98
2023-02-16T23:25:29.825Z,8.00
2023-02-16T23:30:31.639Z,8.00
2023-02-16T23:35:37.843Z,8.02
2023-02-16T23:40:44.214Z,8.01
2023-02-16T23:45:51.337Z,8.05
2023-02-16T23:50:56.064Z,8.07
2023-02-16T23:56:02.818Z,8.08
